Bremerton National Airport Bremerton US
ICAO: KPWT
IATA: PWT
Category: Medium
Scheduled Services: No

Elevation: 444 ft
TransAlt. 18000 ft.

Airport Communications:
SEATTLE APP/DEP:127.1
AWOS 3:121.2
CTAF/UNICOM:123.05

KPWT Zoom In..

If you have problems with the map follow the link
https://www.worldairports.se/pages/airport.php?
ICAO=KPWT

Runways:

(A) RW 02 length 6000 ft width 150 ft
---- / hdg 17

(B) RW 20 length 6000 ft width 150 ft
ILS 111.10 / hdg 197

Location; KPWT
Day. 22 / Time. 15.56 Zulu
* Altimeter: 29.98
* Temperature: 01° c. 33.8°f.
* Wind from: 210° Speed 12 kn.
Dewpoint: -01° c.
Visibility: 10 Statute Miles.
Clouds: Few 1000 ft.
Clouds: Overcast 1700 ft.

KPWT 221556Z AUTO 21012KT 10SM FEW010 OVC017 01/M01 A2998 RMK AO2 RAE48UPB10E14SNB14E23 SLP169 P0000 T00061011 FZRANO


Wind From 210°
Speed 12 kn.

 
 
jpsmedia.com for Web Design worldairports.se 2019   terms of use